Time;durP1;ratioP1;P1;durP2;ratioP2;P2;SDS_P1;SDS_P2;PMS_P1;PMS_P2;Temp;Humidity;BMP_temperature;BMP_pressure;BME280_temperature;BME280_humidity;BME280_pressure;Samples;Min_cycle;Max_cycle;Signal;HPM_P1;HPM_P2
2023/08/05 00:01:35;;;;;;;5.97;2.63;;;;;;;21.75;65.25;101072.69;5052552;27;98933;-66
2023/08/05 00:04:03;;;;;;;5.95;2.80;;;;;;;21.92;64.95;101070.56;5050296;27;96945;-65
2023/08/05 00:06:30;;;;;;;4.03;2.55;;;;;;;21.60;65.92;101075.69;5044747;27;97195;-65
2023/08/05 00:08:56;;;;;;;3.28;1.95;;;;;;;21.63;65.88;101075.47;5046723;27;99517;-66
2023/08/05 00:11:22;;;;;;;3.53;2.25;;;;;;;21.78;65.33;101080.53;5048401;27;98799;-65
2023/08/05 00:13:49;;;;;;;3.92;2.55;;;;;;;21.67;65.60;101087.69;5046960;27;98513;-67
2023/08/05 00:16:15;;;;;;;3.72;2.08;;;;;;;21.73;65.52;101088.09;5044344;27;97394;-66
2023/08/05 00:18:42;;;;;;;3.90;2.60;;;;;;;21.69;65.74;101097.38;5043447;27;99110;-65
2023/08/05 00:21:09;;;;;;;3.95;2.08;;;;;;;21.28;66.93;101091.56;5053058;27;98762;-66
2023/08/05 00:23:36;;;;;;;8.00;2.55;;;;;;;21.26;67.69;101110.50;5048087;27;99030;-66
2023/08/05 00:26:02;;;;;;;3.17;1.90;;;;;;;21.28;67.53;101105.00;5046367;27;97078;-66
2023/08/05 00:28:28;;;;;;;4.78;2.20;;;;;;;21.45;66.79;101102.78;5051369;27;99327;-66
2023/08/05 00:30:55;;;;;;;5.55;2.40;;;;;;;21.17;67.92;101107.63;5043979;27;99413;-66
2023/08/05 00:33:21;;;;;;;2.58;1.98;;;;;;;21.55;66.31;101099.38;5044758;27;98275;-65
2023/08/05 00:35:47;;;;;;;5.47;2.25;;;;;;;21.52;66.13;101091.56;5043053;27;98512;-65
2023/08/05 00:38:15;;;;;;;8.10;2.42;;;;;;;21.54;65.53;101090.47;5044809;27;98453;-65
2023/08/05 00:40:43;;;;;;;7.72;2.58;;;;;;;21.43;65.95;101096.66;5042067;27;99185;-65
2023/08/05 00:43:09;;;;;;;6.75;2.45;;;;;;;21.49;66.31;101092.66;5053437;27;97128;-65
2023/08/05 00:45:36;;;;;;;4.35;2.50;;;;;;;21.45;66.38;101091.19;5055576;27;96875;-65
2023/08/05 00:48:03;;;;;;;7.57;2.63;;;;;;;21.29;67.04;101094.13;5053081;27;98890;-65
2023/08/05 00:50:30;;;;;;;3.63;2.10;;;;;;;21.34;67.27;101091.09;5049574;27;99390;-66
2023/08/05 00:52:57;;;;;;;5.60;2.30;;;;;;;21.42;67.00;101091.38;5047631;27;97145;-66
2023/08/05 00:55:25;;;;;;;4.35;2.28;;;;;;;21.31;66.93;101084.16;5049551;27;98990;-66
2023/08/05 00:57:52;;;;;;;4.22;2.45;;;;;;;21.49;66.50;101092.66;5039976;27;99376;-66
2023/08/05 01:00:18;;;;;;;3.63;2.25;;;;;;;21.40;66.72;101093.31;5048755;27;101000;-66
2023/08/05 01:02:45;;;;;;;7.38;2.50;;;;;;;21.40;66.22;101087.94;5046994;27;99355;-66
2023/08/05 01:05:11;;;;;;;5.53;2.10;;;;;;;21.49;66.10;101092.66;5043840;27;96836;-66
2023/08/05 01:07:39;;;;;;;3.55;2.10;;;;;;;21.25;66.96;101102.56;5042780;27;98399;-66
2023/08/05 01:10:07;;;;;;;3.72;2.10;;;;;;;21.44;66.43;101092.13;5047218;27;100117;-65
2023/08/05 01:12:34;;;;;;;6.43;2.50;;;;;;;21.32;66.55;101085.00;5048570;27;98691;-66
2023/08/05 01:15:01;;;;;;;3.28;2.00;;;;;;;21.51;65.70;101084.47;5045925;27;98127;-66
2023/08/05 01:17:27;;;;;;;3.25;2.22;;;;;;;21.46;65.12;101087.53;5043795;27;98816;-66
2023/08/05 01:19:53;;;;;;;4.97;2.08;;;;;;;21.45;65.61;101073.22;5050758;27;97593;-66
2023/08/05 01:22:27;;;;;;;3.20;2.10;;;;;;;21.47;65.59;101081.13;5050888;27;98533;-66
2023/08/05 01:25:00;;;;;;;2.58;2.17;;;;;;;21.42;65.55;101076.13;5048525;27;97542;-66
2023/08/05 01:27:29;;;;;;;6.25;2.10;;;;;;;21.36;65.41;101081.09;5046902;27;97744;-66
2023/08/05 01:30:23;;;;;;;3.90;1.90;;;;;;;21.43;64.70;101077.84;5046498;27;98074;-66
2023/08/05 01:32:52;;;;;;;5.03;2.33;;;;;;;21.52;64.28;101078.13;5040435;27;97188;-66
2023/08/05 01:35:21;;;;;;;6.05;2.00;;;;;;;21.49;64.21;101076.50;5043073;27;97400;-66
2023/08/05 01:37:47;;;;;;;2.65;2.05;;;;;;;21.43;64.12;101068.91;5040379;27;99106;-66
2023/08/05 01:40:14;;;;;;;2.58;2.15;;;;;;;21.52;63.98;101075.44;5046359;27;99237;-66
2023/08/05 01:42:42;;;;;;;4.80;2.40;;;;;;;21.61;63.34;101075.56;5049071;27;98628;-66
2023/08/05 01:45:09;;;;;;;4.63;2.60;;;;;;;21.70;62.84;101065.97;5050873;27;96868;-66
2023/08/05 01:47:35;;;;;;;6.47;2.85;;;;;;;21.25;63.65;101075.69;5057966;27;99133;-65
2023/08/05 01:50:02;;;;;;;8.75;2.15;;;;;;;21.36;64.12;101071.22;5057998;27;98965;-66
2023/08/05 01:52:29;;;;;;;3.58;1.80;;;;;;;21.30;64.50;101073.50;5063585;27;96809;-66
2023/08/05 01:54:55;;;;;;;2.80;1.83;;;;;;;21.41;63.87;101070.84;5047206;27;99097;-66
2023/08/05 01:57:21;;;;;;;3.67;1.98;;;;;;;21.48;63.84;101070.28;5043275;27;99005;-66
2023/08/05 01:59:49;;;;;;;2.80;1.98;;;;;;;21.28;64.58;101070.06;5054252;27;97917;-66
2023/08/05 02:02:16;;;;;;;6.22;2.10;;;;;;;21.40;64.62;101069.13;5046314;27;97836;-66
2023/08/05 02:04:42;;;;;;;5.13;3.05;;;;;;;21.40;64.60;101069.13;5042687;27;98884;-65
2023/08/05 02:07:08;;;;;;;7.60;2.00;;;;;;;21.31;64.07;101069.84;5048563;27;99429;-64
2023/08/05 02:09:35;;;;;;;2.65;2.30;;;;;;;21.24;64.72;101073.97;5048506;27;99107;-65
2023/08/05 02:12:01;;;;;;;10.55;2.10;;;;;;;21.21;64.82;101077.72;5052458;27;96765;-66
2023/08/05 02:14:27;;;;;;;5.50;2.20;;;;;;;21.02;65.25;101075.50;5048818;27;97115;-66
2023/08/05 02:16:55;;;;;;;3.28;2.20;;;;;;;21.16;65.23;101074.53;5047267;27;99557;-65
2023/08/05 02:19:21;;;;;;;2.22;1.98;;;;;;;20.92;65.72;101074.50;5048566;27;98943;-65
2023/08/05 02:21:48;;;;;;;3.22;1.90;;;;;;;20.83;66.17;101083.22;5049514;27;98822;-66
2023/08/05 02:24:14;;;;;;;2.40;2.05;;;;;;;20.64;66.95;101080.16;5047527;27;97040;-66
2023/08/05 02:26:41;;;;;;;4.13;2.60;;;;;;;20.75;66.50;101082.91;5051614;27;99124;-66
2023/08/05 02:29:08;;;;;;;5.20;2.33;;;;;;;20.65;66.87;101076.50;5049248;27;99329;-66
2023/08/05 02:31:34;;;;;;;4.95;2.33;;;;;;;20.65;66.92;101087.22;5048988;27;96769;-66
2023/08/05 02:34:02;;;;;;;5.78;2.50;;;;;;;20.48;68.22;101090.28;5047784;27;96820;-66
2023/08/05 02:36:28;;;;;;;4.57;2.10;;;;;;;20.48;67.67;101101.84;5057831;27;98860;-66
2023/08/05 02:38:55;;;;;;;7.18;2.50;;;;;;;20.65;67.22;101095.28;5053324;27;99169;-66
2023/08/05 02:41:21;;;;;;;3.90;2.00;;;;;;;20.63;67.13;101099.91;5053178;27;96763;-69
2023/08/05 02:43:47;;;;;;;5.28;2.28;;;;;;;20.35;67.88;101100.16;5052449;27;97095;-67
2023/08/05 02:46:14;;;;;;;4.07;2.70;;;;;;;20.50;67.92;101101.75;5049152;27;98201;-67
2023/08/05 02:48:40;;;;;;;3.67;2.30;;;;;;;20.69;66.90;101111.06;5048937;27;99085;-66
2023/08/05 02:51:09;;;;;;;4.20;2.60;;;;;;;20.98;66.25;101094.66;5053784;27;99075;-66
2023/08/05 02:53:35;;;;;;;8.13;3.13;;;;;;;20.99;66.09;101102.63;5058871;27;96849;-66
2023/08/05 02:56:02;;;;;;;6.35;2.65;;;;;;;20.79;66.87;101094.28;5048480;27;98783;-66
2023/08/05 02:58:28;;;;;;;4.55;2.38;;;;;;;20.90;66.52;101097.06;5048297;27;102027;-66
2023/08/05 03:00:55;;;;;;;4.57;2.25;;;;;;;20.96;65.93;101097.47;5048561;27;97698;-63
2023/08/05 03:03:21;;;;;;;7.15;2.53;;;;;;;20.99;65.84;101097.25;5055706;27;97798;-67
2023/08/05 03:05:47;;;;;;;2.67;2.20;;;;;;;21.04;65.75;101110.34;5052982;27;98894;-68
2023/08/05 03:08:15;;;;;;;4.78;2.20;;;;;;;20.92;66.04;101113.91;5051771;27;99419;-68
2023/08/05 03:10:42;;;;;;;8.65;1.90;;;;;;;20.73;66.88;101110.84;5047078;27;97393;-68
2023/08/05 03:13:08;;;;;;;4.75;2.33;;;;;;;20.87;66.74;101098.13;5052985;27;97146;-68
2023/08/05 03:15:35;;;;;;;4.93;2.67;;;;;;;20.93;66.61;101103.06;5050680;27;98916;-66
2023/08/05 03:18:01;;;;;;;8.25;2.35;;;;;;;21.03;65.73;101116.69;5054068;27;99221;-66
2023/08/05 03:20:29;;;;;;;3.95;2.47;;;;;;;20.81;66.52;101103.94;5051414;27;97678;-66
2023/08/05 03:22:56;;;;;;;5.40;2.58;;;;;;;20.58;67.45;101107.44;5044332;27;99434;-66
2023/08/05 03:25:26;;;;;;;3.08;2.28;;;;;;;20.72;67.03;101093.88;5047013;27;98917;-66
2023/08/05 03:27:52;;;;;;;5.53;2.65;;;;;;;20.56;68.07;101095.94;5050000;27;99164;-66
2023/08/05 03:30:19;;;;;;;6.53;3.00;;;;;;;20.80;67.11;101085.28;5046827;27;96833;-67
2023/08/05 03:32:48;;;;;;;5.22;2.80;;;;;;;20.65;67.43;101088.09;5049388;27;97766;-66
2023/08/05 03:35:14;;;;;;;4.65;2.50;;;;;;;20.73;67.21;101084.00;5046009;27;99484;-66
2023/08/05 03:37:40;;;;;;;3.90;2.80;;;;;;;20.63;67.72;101092.72;5046879;27;98760;-67
2023/08/05 03:40:08;;;;;;;3.95;2.63;;;;;;;20.53;68.69;101088.13;5047242;27;99105;-67
2023/08/05 03:42:36;;;;;;;7.65;2.45;;;;;;;20.57;68.51;101092.28;5040700;27;96860;-67
2023/08/05 03:45:04;;;;;;;4.72;2.72;;;;;;;20.53;68.73;101090.81;5049646;27;98879;-67
2023/08/05 03:47:30;;;;;;;7.32;2.47;;;;;;;20.51;68.86;101095.41;5051633;27;98810;-67
2023/08/05 03:49:57;;;;;;;6.43;3.22;;;;;;;20.48;69.21;101092.97;5044476;27;99128;-67
2023/08/05 03:52:24;;;;;;;6.57;2.67;;;;;;;20.46;69.06;101089.53;5049126;27;99335;-67
2023/08/05 03:54:51;;;;;;;5.85;2.92;;;;;;;20.55;68.75;101089.72;5047510;27;99226;-67
2023/08/05 03:57:18;;;;;;;6.18;2.95;;;;;;;20.40;69.34;101089.97;5049395;27;98869;-67
2023/08/05 03:59:47;;;;;;;7.22;2.85;;;;;;;20.68;68.53;101092.38;5057685;27;97894;-67
2023/08/05 04:02:14;;;;;;;4.50;2.90;;;;;;;20.74;68.28;101089.28;5053488;27;97213;-68
2023/08/05 04:04:42;;;;;;;7.72;3.22;;;;;;;20.79;67.72;101091.59;5048255;27;101303;-67
2023/08/05 04:07:09;;;;;;;7.03;3.30;;;;;;;20.93;67.48;101095.00;5048788;27;98111;-67
2023/08/05 04:09:36;;;;;;;6.10;3.20;;;;;;;20.94;67.50;101102.06;5047500;27;96852;-65
2023/08/05 04:12:05;;;;;;;6.05;3.63;;;;;;;21.02;66.95;101099.69;5049242;27;97501;-65
2023/08/05 04:14:31;;;;;;;9.32;3.63;;;;;;;20.98;67.16;101106.28;5047025;27;99745;-66
2023/08/05 04:17:02;;;;;;;5.15;3.15;;;;;;;20.75;67.67;101101.69;5045520;27;98951;-66
2023/08/05 04:19:29;;;;;;;4.60;3.13;;;;;;;20.88;67.55;101094.47;5039453;27;99501;-66
2023/08/05 04:21:55;;;;;;;3.53;2.75;;;;;;;21.17;66.59;101094.19;5049175;27;97293;-66
2023/08/05 04:24:24;;;;;;;7.32;3.38;;;;;;;21.24;65.70;101099.00;5044133;27;100083;-66
2023/08/05 04:26:51;;;;;;;6.38;3.60;;;;;;;20.99;66.82;101108.00;5046341;27;97653;-66
2023/08/05 04:29:18;;;;;;;5.25;3.10;;;;;;;21.15;66.23;101104.16;5046792;27;96739;-66
2023/08/05 04:31:45;;;;;;;4.60;3.10;;;;;;;21.06;66.82;101101.22;5047180;27;96818;-66
2023/08/05 04:34:13;;;;;;;8.38;3.10;;;;;;;21.27;65.78;101109.50;5049352;27;98903;-67
2023/08/05 04:36:39;;;;;;;4.95;3.30;;;;;;;21.14;66.42;101114.03;5043105;27;99340;-66
2023/08/05 04:39:06;;;;;;;5.32;3.17;;;;;;;21.01;66.67;101113.22;5047014;27;98359;-65
2023/08/05 04:41:33;;;;;;;5.68;3.28;;;;;;;21.28;65.47;101118.44;5049378;27;97659;-66
2023/08/05 04:43:59;;;;;;;8.77;3.97;;;;;;;21.57;64.80;101110.91;5049423;27;98935;-65
2023/08/05 04:46:25;;;;;;;8.63;4.47;;;;;;;21.54;64.81;101109.28;5046638;27;98831;-66
2023/08/05 04:48:52;;;;;;;8.13;3.90;;;;;;;21.66;64.14;101118.28;5048317;27;97216;-65
2023/08/05 04:51:20;;;;;;;9.63;3.40;;;;;;;21.84;63.11;101123.09;5049346;27;97933;-65
2023/08/05 04:53:46;;;;;;;5.05;2.78;;;;;;;21.74;63.54;101124.75;5049703;27;99422;-65
2023/08/05 04:56:12;;;;;;;6.07;3.00;;;;;;;21.85;63.23;101122.13;5046990;27;98839;-65
2023/08/05 04:58:39;;;;;;;5.95;3.05;;;;;;;22.19;61.96;101111.47;5046557;27;96849;-66
2023/08/05 05:01:05;;;;;;;6.93;3.45;;;;;;;22.08;61.90;101114.13;5046702;27;97206;-65
2023/08/05 05:03:40;;;;;;;8.05;2.92;;;;;;;22.26;61.64;101110.00;5053602;27;99201;-66
2023/08/05 05:06:06;;;;;;;6.50;3.10;;;;;;;22.25;61.23;101108.31;5044639;27;100861;-66
2023/08/05 05:08:34;;;;;;;5.72;3.28;;;;;;;22.26;61.66;101104.63;5048096;27;98619;-65
2023/08/05 05:11:01;;;;;;;6.80;2.90;;;;;;;22.33;61.60;101113.06;5047435;27;97091;-64
2023/08/05 05:13:27;;;;;;;7.47;2.92;;;;;;;22.49;60.95;101116.28;5046633;27;99330;-65
2023/08/05 05:15:53;;;;;;;7.80;2.90;;;;;;;22.24;61.99;101130.81;5050629;27;99012;-65
2023/08/05 05:18:20;;;;;;;4.25;2.53;;;;;;;22.56;61.02;101139.91;5040849;27;97784;-65
2023/08/05 05:20:49;;;;;;;6.07;2.40;;;;;;;22.31;61.43;101137.44;5051251;27;97155;-65
2023/08/05 05:23:15;;;;;;;7.57;3.55;;;;;;;22.64;60.92;101145.53;5037845;27;99140;-65
2023/08/05 05:25:43;;;;;;;5.07;2.65;;;;;;;22.64;60.70;101150.91;5047560;27;98961;-65
2023/08/05 05:28:09;;;;;;;9.60;2.38;;;;;;;22.70;60.24;101146.91;5042813;27;97019;-66
2023/08/05 05:30:36;;;;;;;8.52;3.05;;;;;;;22.67;60.94;101142.59;5050002;27;97103;-66
2023/08/05 05:33:02;;;;;;;5.40;2.78;;;;;;;22.46;60.98;101146.13;5048588;27;99214;-66
2023/08/05 05:35:29;;;;;;;3.85;2.50;;;;;;;22.65;60.54;101141.00;5050327;27;99279;-66
2023/08/05 05:37:56;;;;;;;9.02;2.78;;;;;;;22.78;60.42;101155.22;5040920;27;99970;-66
2023/08/05 05:40:22;;;;;;;7.13;2.50;;;;;;;22.91;60.19;101155.09;5046266;27;96961;-67
2023/08/05 05:42:51;;;;;;;7.13;2.67;;;;;;;22.92;59.89;101151.44;5051082;27;97874;-67
2023/08/05 05:45:17;;;;;;;5.57;2.70;;;;;;;22.88;60.29;101150.84;5047701;27;98571;-66
2023/08/05 05:47:44;;;;;;;7.38;2.63;;;;;;;22.95;59.98;101153.91;5040093;27;97104;-66
2023/08/05 05:50:11;;;;;;;8.23;2.47;;;;;;;23.14;59.54;101142.47;5035887;27;98058;-66
2023/08/05 05:52:37;;;;;;;9.50;2.97;;;;;;;23.21;59.30;101138.28;5041397;27;101129;-66
2023/08/05 05:55:04;;;;;;;7.80;2.40;;;;;;;23.28;59.18;101134.13;5044875;27;101234;-66
2023/08/05 05:57:31;;;;;;;9.70;2.80;;;;;;;23.31;58.61;101136.53;5043231;27;98943;-66
2023/08/05 05:59:58;;;;;;;8.75;4.60;;;;;;;23.66;57.55;101137.19;5046494;27;97466;-67
2023/08/05 06:02:25;;;;;;;7.75;2.72;;;;;;;23.81;57.37;101133.22;5044809;27;97899;-67
2023/08/05 06:04:51;;;;;;;5.35;2.70;;;;;;;23.76;57.09;101135.44;5049882;27;100856;-67
2023/08/05 06:07:17;;;;;;;6.60;2.50;;;;;;;23.73;57.47;101133.00;5048512;27;97367;-67
2023/08/05 06:09:44;;;;;;;6.88;2.40;;;;;;;23.77;56.84;101126.34;5045959;27;97097;-67
2023/08/05 06:12:10;;;;;;;5.53;2.65;;;;;;;24.17;55.77;101125.63;5049396;27;98105;-66
2023/08/05 06:14:37;;;;;;;4.63;3.03;;;;;;;24.39;54.57;101133.63;5047152;27;99187;-67
2023/08/05 06:17:05;;;;;;;7.85;2.80;;;;;;;24.40;54.73;101123.69;5047278;27;98911;-67
2023/08/05 06:19:32;;;;;;;6.72;2.78;;;;;;;23.84;56.08;101132.09;5037793;27;97804;-68
2023/08/05 06:21:58;;;;;;;6.10;2.60;;;;;;;23.86;56.21;101131.97;5046870;27;99606;-66
2023/08/05 06:24:24;;;;;;;9.15;2.38;;;;;;;24.00;55.71;101129.81;5047021;27;99869;-67
2023/08/05 06:26:51;;;;;;;5.78;2.13;;;;;;;23.95;55.33;101126.66;5048126;27;98804;-67
2023/08/05 06:29:17;;;;;;;5.97;2.40;;;;;;;23.92;55.56;101132.28;5048920;27;97777;-66
2023/08/05 06:31:44;;;;;;;6.53;1.90;;;;;;;23.88;56.34;101132.69;5056168;27;98867;-67
2023/08/05 06:34:12;;;;;;;6.40;2.33;;;;;;;23.64;57.04;101141.00;5051596;27;99184;-66
2023/08/05 06:36:38;;;;;;;5.68;2.40;;;;;;;23.61;57.52;101136.75;5043088;27;98587;-67
2023/08/05 06:39:05;;;;;;;6.50;2.08;;;;;;;23.75;57.33;101140.97;5043774;27;96909;-67
2023/08/05 06:41:31;;;;;;;8.80;2.72;;;;;;;23.49;58.22;101137.75;5051141;27;98917;-67
2023/08/05 06:43:58;;;;;;;8.18;2.33;;;;;;;23.76;57.30;101129.19;5054233;27;96795;-67
2023/08/05 06:46:24;;;;;;;6.07;2.40;;;;;;;24.13;56.26;101135.84;5052420;27;96840;-68
2023/08/05 06:48:51;;;;;;;9.00;2.70;;;;;;;23.93;56.39;101136.72;5054608;27;97320;-69
2023/08/05 06:51:19;;;;;;;6.07;3.17;;;;;;;23.94;56.88;101145.66;5048628;27;97825;-68
2023/08/05 06:53:45;;;;;;;6.85;2.25;;;;;;;24.07;56.14;101140.94;5046884;27;98546;-67
2023/08/05 06:56:12;;;;;;;5.32;2.90;;;;;;;24.18;56.10;101146.25;5052499;27;97136;-66
2023/08/05 06:58:38;;;;;;;10.55;2.50;;;;;;;24.11;55.80;101140.53;5042335;27;100707;-66
2023/08/05 07:01:04;;;;;;;7.25;2.65;;;;;;;24.11;55.84;101140.53;5045649;27;98945;-66
2023/08/05 07:03:31;;;;;;;6.35;2.67;;;;;;;24.13;56.10;101127.75;5045963;27;102213;-66
2023/08/05 07:05:57;;;;;;;6.65;2.70;;;;;;;24.15;55.60;101131.19;5050605;27;98644;-66
2023/08/05 07:08:25;;;;;;;5.20;2.03;;;;;;;24.33;54.67;101130.59;5052259;27;98753;-67
2023/08/05 07:10:59;;;;;;;5.68;2.20;;;;;;;24.28;55.06;101128.31;5045764;27;99090;-65
2023/08/05 07:13:25;;;;;;;10.25;4.10;;;;;;;24.46;54.58;101131.25;5040404;27;100051;-66
2023/08/05 07:15:52;;;;;;;9.32;2.80;;;;;;;24.65;53.84;101123.25;5041475;27;98536;-65
2023/08/05 07:18:18;;;;;;;7.35;2.20;;;;;;;24.86;53.53;101121.34;5050764;27;97456;-67
2023/08/05 07:20:44;;;;;;;8.68;2.30;;;;;;;24.69;53.74;101113.84;5041684;27;97871;-67
2023/08/05 07:23:11;;;;;;;13.00;2.50;;;;;;;24.82;52.85;101119.88;5044147;27;98916;-66
2023/08/05 07:25:38;;;;;;;5.82;1.92;;;;;;;24.67;52.79;101115.84;5042524;27;96906;-66
2023/08/05 07:28:05;;;;;;;8.27;2.13;;;;;;;24.81;52.78;101118.16;5041901;27;96880;-66
2023/08/05 07:30:31;;;;;;;6.97;2.47;;;;;;;24.52;52.23;101117.22;5052874;27;99157;-66
2023/08/05 07:32:57;;;;;;;6.32;2.15;;;;;;;24.47;53.21;101105.97;5045858;27;99065;-65
2023/08/05 07:35:27;;;;;;;5.88;2.92;;;;;;;24.93;52.27;101119.81;5045424;27;96904;-66
2023/08/05 07:37:55;;;;;;;6.30;2.22;;;;;;;24.94;52.94;101117.97;5034301;27;98754;-66
2023/08/05 07:40:21;;;;;;;7.60;2.90;;;;;;;25.21;52.02;101120.00;5040307;27;99383;-66
2023/08/05 07:42:49;;;;;;;7.47;2.45;;;;;;;25.17;51.60;101124.84;5039505;27;99946;-66
2023/08/05 07:45:18;;;;;;;6.50;2.42;;;;;;;25.19;51.16;101122.03;5042506;27;97727;-66
2023/08/05 07:47:44;;;;;;;4.53;2.10;;;;;;;25.28;51.61;101129.28;5052070;27;97212;-65
2023/08/05 07:50:14;;;;;;;10.88;2.60;;;;;;;25.18;51.72;101120.31;5049273;27;97518;-66
2023/08/05 07:52:40;;;;;;;6.85;2.33;;;;;;;25.22;51.70;101127.13;5051966;27;98900;-65
2023/08/05 07:55:07;;;;;;;8.75;2.75;;;;;;;25.35;50.75;101111.50;5047740;27;98297;-69
2023/08/05 07:57:35;;;;;;;9.10;3.17;;;;;;;25.21;51.40;101114.59;5045107;27;96964;-66
2023/08/05 08:00:04;;;;;;;6.93;3.00;;;;;;;25.20;51.15;101113.78;5043756;27;99174;-65
2023/08/05 08:02:31;;;;;;;8.35;2.50;;;;;;;25.10;51.77;101110.19;5042615;27;99159;-67
2023/08/05 08:05:03;;;;;;;5.15;2.00;;;;;;;25.01;51.84;101109.16;5042159;27;96821;-66
2023/08/05 08:07:35;;;;;;;6.57;2.35;;;;;;;25.26;51.00;101106.94;5041587;27;97044;-67
2023/08/05 08:10:02;;;;;;;8.45;2.65;;;;;;;25.27;51.37;101108.66;5043107;27;98993;-67
2023/08/05 08:12:28;;;;;;;5.55;2.80;;;;;;;25.13;51.73;101106.34;5040551;27;97772;-66
2023/08/05 08:14:54;;;;;;;7.30;2.47;;;;;;;25.33;51.54;101097.28;5041635;27;97516;-67
2023/08/05 08:17:22;;;;;;;8.15;2.90;;;;;;;25.39;51.63;101096.72;5046656;27;98342;-66
2023/08/05 08:19:50;;;;;;;5.85;2.97;;;;;;;25.63;51.21;101099.03;5044472;27;100128;-67
2023/08/05 08:22:17;;;;;;;8.95;2.80;;;;;;;25.59;50.56;101106.59;5045373;27;99510;-67
2023/08/05 08:24:43;;;;;;;7.13;2.47;;;;;;;25.75;50.34;101098.72;5045348;27;97495;-67
2023/08/05 08:27:10;;;;;;;9.75;2.38;;;;;;;25.39;51.20;101108.41;5045239;27;98935;-70
2023/08/05 08:29:36;;;;;;;17.15;5.97;;;;;;;25.11;51.46;101103.78;5044905;27;100464;-68
2023/08/05 08:32:03;;;;;;;6.85;2.60;;;;;;;25.62;50.66;101109.00;5040900;27;98905;-69
2023/08/05 08:34:31;;;;;;;7.65;2.55;;;;;;;25.54;50.35;101106.09;5046805;27;98006;-67
2023/08/05 08:36:57;;;;;;;9.35;2.97;;;;;;;26.01;49.87;101100.84;5051295;27;96838;-68
2023/08/05 08:39:24;;;;;;;5.68;2.90;;;;;;;25.74;49.88;101105.13;5055940;27;102497;-66
2023/08/05 08:41:54;;;;;;;9.57;3.30;;;;;;;25.90;49.89;101107.28;5047648;27;99064;-67
2023/08/05 08:44:21;;;;;;;11.20;3.78;;;;;;;26.04;49.83;101101.41;5048820;27;98458;-66
2023/08/05 08:46:49;;;;;;;6.50;2.50;;;;;;;26.35;48.52;101099.34;5047444;27;97175;-65
2023/08/05 08:49:16;;;;;;;7.35;2.35;;;;;;;26.63;47.26;101105.69;5048580;27;99147;-68
2023/08/05 08:51:47;;;;;;;7.22;2.50;;;;;;;26.49;46.85;101098.88;5047614;27;98925;-66
2023/08/05 08:54:14;;;;;;;6.68;2.45;;;;;;;26.69;46.75;101098.81;5040253;27;98068;-68
2023/08/05 08:56:41;;;;;;;6.80;2.00;;;;;;;26.21;46.26;101097.09;5038981;27;97445;-66
2023/08/05 08:59:07;;;;;;;8.25;3.13;;;;;;;26.56;46.35;101107.28;5041536;27;99463;-68
2023/08/05 09:01:38;;;;;;;7.22;2.47;;;;;;;26.85;45.00;101099.00;5039989;27;98310;-66
2023/08/05 09:04:06;;;;;;;5.70;2.25;;;;;;;26.98;45.13;101095.97;5041378;27;97149;-67
2023/08/05 09:06:33;;;;;;;5.80;2.03;;;;;;;26.85;45.04;101094.44;5036397;27;97682;-67
2023/08/05 09:09:01;;;;;;;5.28;2.80;;;;;;;26.91;44.06;101093.84;5034249;27;100354;-68
2023/08/05 09:11:27;;;;;;;9.75;3.15;;;;;;;27.15;43.86;101085.16;5042592;27;101609;-68
2023/08/05 09:13:54;;;;;;;10.85;4.90;;;;;;;27.51;43.29;101086.00;5046451;27;97840;-68
2023/08/05 09:16:20;;;;;;;4.93;2.05;;;;;;;27.57;43.05;101080.00;5044642;27;98535;-68
2023/08/05 09:18:52;;;;;;;3.75;1.90;;;;;;;27.40;42.86;101088.09;5039429;27;99464;-68
2023/08/05 09:21:22;;;;;;;5.00;2.47;;;;;;;27.58;42.01;101086.28;5044800;27;99132;-68
2023/08/05 09:23:48;;;;;;;10.23;3.22;;;;;;;27.66;41.96;101086.34;5046352;27;97262;-68
2023/08/05 09:26:27;;;;;;;5.88;2.58;;;;;;;27.26;42.17;101092.22;5043378;27;100494;-68
2023/08/05 09:28:53;;;;;;;5.60;1.98;;;;;;;26.98;42.55;101093.28;5039947;27;98655;-68
2023/08/05 09:31:20;;;;;;;5.30;2.33;;;;;;;26.98;43.27;101086.81;5049012;27;98748;-67
2023/08/05 09:33:46;;;;;;;4.15;2.63;;;;;;;26.91;44.22;101091.13;5045136;27;97268;-68
2023/08/05 09:36:14;;;;;;;9.73;2.45;;;;;;;27.13;43.63;101086.31;5046597;27;97047;-68
2023/08/05 09:38:41;;;;;;;4.35;1.95;;;;;;;26.83;44.16;101085.63;5047817;27;98881;-68
2023/08/05 09:41:08;;;;;;;12.68;5.80;;;;;;;26.87;44.46;101080.72;5042937;27;99758;-68
2023/08/05 09:43:40;;;;;;;5.55;2.80;;;;;;;27.01;44.35;101076.69;5038919;27;96867;-69
2023/08/05 09:46:11;;;;;;;3.05;2.60;;;;;;;27.10;43.64;101070.34;5033469;27;96943;-67
2023/08/05 09:48:42;;;;;;;5.38;2.40;;;;;;;26.71;43.12;101085.97;5038008;27;99304;-68
2023/08/05 09:51:13;;;;;;;4.63;2.22;;;;;;;26.31;43.80;101072.72;5034069;27;98843;-68
2023/08/05 09:53:41;;;;;;;5.30;1.92;;;;;;;26.61;43.63;101066.16;5032161;27;97703;-67
2023/08/05 09:56:10;;;;;;;5.53;2.22;;;;;;;26.93;43.66;101058.47;5038319;27;96950;-68
2023/08/05 09:58:38;;;;;;;7.30;2.15;;;;;;;26.74;43.67;101058.53;5036060;27;99378;-67
2023/08/05 10:01:07;;;;;;;5.82;1.90;;;;;;;27.13;43.11;101064.59;5038584;27;99167;-68
2023/08/05 10:03:37;;;;;;;4.68;2.20;;;;;;;27.25;42.76;101053.38;5047142;27;97428;-68
2023/08/05 10:06:06;;;;;;;6.55;2.47;;;;;;;27.53;41.41;101045.19;5049816;27;97594;-68
2023/08/05 10:08:36;;;;;;;5.20;2.00;;;;;;;27.64;40.79;101045.78;5051126;27;101538;-67
2023/08/05 10:11:04;;;;;;;4.20;1.33;;;;;;;27.72;39.85;101040.44;5046735;27;99266;-68
2023/08/05 10:13:33;;;;;;;7.80;2.30;;;;;;;27.91;39.85;101039.38;5042802;27;96898;-68
2023/08/05 10:16:01;;;;;;;5.03;1.98;;;;;;;27.56;40.38;101031.31;5046989;27;97662;-67
2023/08/05 10:18:27;;;;;;;4.18;1.75;;;;;;;27.54;40.82;101028.75;5048058;27;101836;-67
2023/08/05 10:20:54;;;;;;;5.68;1.60;;;;;;;27.61;40.84;101029.81;5040910;27;99727;-67
2023/08/05 10:23:25;;;;;;;7.63;1.83;;;;;;;27.59;41.33;101042.69;5040375;27;97188;-68
2023/08/05 10:25:59;;;;;;;8.73;3.42;;;;;;;28.04;39.36;101039.78;5042686;27;97230;-68
2023/08/05 10:28:42;;;;;;;6.43;2.22;;;;;;;27.76;39.00;101049.13;5042480;27;99103;-67
2023/08/05 10:31:27;;;;;;;6.85;2.00;;;;;;;27.92;39.05;101057.38;5046813;27;98794;-67
2023/08/05 10:34:08;;;;;;;5.38;2.75;;;;;;;27.56;39.90;101058.47;5047664;27;97142;-67
2023/08/05 10:36:45;;;;;;;6.32;1.75;;;;;;;27.57;39.79;101043.88;5042781;27;97390;-68
2023/08/05 10:39:43;;;;;;;7.88;2.03;;;;;;;27.55;39.24;101048.59;5049185;27;99183;-68
2023/08/05 10:42:37;;;;;;;4.18;1.55;;;;;;;27.57;39.97;101046.59;5036822;27;99260;-67
2023/08/05 10:45:08;;;;;;;2.63;1.67;;;;;;;27.25;39.83;101039.81;5026654;27;97587;-67
2023/08/05 10:47:35;;;;;;;4.32;1.65;;;;;;;26.84;40.68;101043.94;5042111;27;98731;-68
2023/08/05 10:50:02;;;;;;;4.60;1.75;;;;;;;27.42;39.76;101034.53;5037344;27;99299;-68
2023/08/05 10:52:29;;;;;;;5.35;1.90;;;;;;;27.84;38.93;101027.44;5043890;27;100967;-67
2023/08/05 10:54:56;;;;;;;5.72;2.08;;;;;;;28.09;37.93;101032.00;5044139;27;96865;-67
2023/08/05 10:57:45;;;;;;;2.78;1.65;;;;;;;28.37;37.47;101023.72;5047029;27;97117;-67
2023/08/05 11:00:18;;;;;;;3.85;1.50;;;;;;;28.39;37.74;101022.53;5043958;27;99111;-67
2023/08/05 11:02:47;;;;;;;3.70;1.70;;;;;;;28.56;36.93;101012.56;5049420;27;97649;-68
2023/08/05 11:05:13;;;;;;;4.93;1.80;;;;;;;28.32;37.03;101015.19;5051252;27;100194;-67
2023/08/05 11:07:42;;;;;;;6.93;1.70;;;;;;;28.93;36.17;101002.19;5042125;27;97194;-67
2023/08/05 11:10:09;;;;;;;2.85;1.40;;;;;;;28.79;37.25;100996.56;5045891;27;101286;-68
2023/08/05 11:12:38;;;;;;;9.18;1.88;;;;;;;27.92;38.25;100991.34;5048760;27;99007;-68
2023/08/05 11:15:06;;;;;;;7.85;1.60;;;;;;;27.84;37.82;100989.41;5045116;27;96802;-67
2023/08/05 11:17:32;;;;;;;5.22;1.67;;;;;;;27.73;38.64;100989.69;5043254;27;97162;-67
2023/08/05 11:20:00;;;;;;;4.70;2.30;;;;;;;28.39;37.62;100986.34;5045534;27;100129;-68
2023/08/05 11:22:27;;;;;;;4.65;1.90;;;;;;;28.86;37.19;100981.28;5049338;27;99527;-68
2023/08/05 11:24:58;;;;;;;5.30;1.85;;;;;;;28.43;37.49;100985.00;5046042;27;101248;-68
2023/08/05 11:27:32;;;;;;;6.80;2.10;;;;;;;28.57;36.97;100980.81;5045668;27;96916;-68